sensor_id;sensor_type;location;lat;lon;timestamp;P1;durP1;ratioP1;P2;durP2;ratioP2
15673;SDS011;7937;48.090;16.212;2023-03-01T00:02:52;16.70;;;10.80;;
15673;SDS011;7937;48.090;16.212;2023-03-01T00:05:54;16.83;;;11.77;;
15673;SDS011;7937;48.090;16.212;2023-03-01T00:08:56;17.70;;;10.80;;
15673;SDS011;7937;48.090;16.212;2023-03-01T00:11:58;16.73;;;11.90;;
15673;SDS011;7937;48.090;16.212;2023-03-01T00:15:00;20.47;;;11.90;;
15673;SDS011;7937;48.090;16.212;2023-03-01T00:18:02;19.27;;;11.77;;
15673;SDS011;7937;48.090;16.212;2023-03-01T00:21:04;21.03;;;11.60;;
15673;SDS011;7937;48.090;16.212;2023-03-01T00:24:07;20.87;;;12.80;;
15673;SDS011;7937;48.090;16.212;2023-03-01T00:27:09;21.03;;;12.53;;
15673;SDS011;7937;48.090;16.212;2023-03-01T00:30:11;16.60;;;11.63;;
15673;SDS011;7937;48.090;16.212;2023-03-01T00:33:14;19.40;;;11.97;;
15673;SDS011;7937;48.090;16.212;2023-03-01T00:36:16;18.90;;;12.63;;
15673;SDS011;7937;48.090;16.212;2023-03-01T00:39:18;17.30;;;11.90;;
15673;SDS011;7937;48.090;16.212;2023-03-01T00:42:20;16.80;;;12.00;;
15673;SDS011;7937;48.090;16.212;2023-03-01T00:45:24;19.37;;;12.50;;
15673;SDS011;7937;48.090;16.212;2023-03-01T00:48:27;20.67;;;13.20;;
15673;SDS011;7937;48.090;16.212;2023-03-01T00:51:29;19.33;;;13.17;;
15673;SDS011;7937;48.090;16.212;2023-03-01T00:54:32;19.33;;;12.67;;
15673;SDS011;7937;48.090;16.212;2023-03-01T00:57:34;21.27;;;13.60;;
15673;SDS011;7937;48.090;16.212;2023-03-01T01:00:36;19.00;;;12.70;;
15673;SDS011;7937;48.090;16.212;2023-03-01T01:03:38;22.50;;;13.83;;
15673;SDS011;7937;48.090;16.212;2023-03-01T01:06:41;18.40;;;12.20;;
15673;SDS011;7937;48.090;16.212;2023-03-01T01:09:45;19.17;;;13.70;;
15673;SDS011;7937;48.090;16.212;2023-03-01T01:12:47;21.90;;;14.20;;
15673;SDS011;7937;48.090;16.212;2023-03-01T01:15:50;20.63;;;13.40;;
15673;SDS011;7937;48.090;16.212;2023-03-01T01:18:52;24.23;;;14.23;;
15673;SDS011;7937;48.090;16.212;2023-03-01T01:21:54;22.50;;;13.43;;
15673;SDS011;7937;48.090;16.212;2023-03-01T01:24:57;21.73;;;14.20;;
15673;SDS011;7937;48.090;16.212;2023-03-01T01:27:59;20.83;;;12.20;;
15673;SDS011;7937;48.090;16.212;2023-03-01T01:31:01;19.57;;;13.20;;
15673;SDS011;7937;48.090;16.212;2023-03-01T01:34:03;22.33;;;13.53;;
15673;SDS011;7937;48.090;16.212;2023-03-01T01:37:07;21.83;;;14.80;;
15673;SDS011;7937;48.090;16.212;2023-03-01T01:40:09;22.13;;;14.73;;
15673;SDS011;7937;48.090;16.212;2023-03-01T01:43:17;22.33;;;14.53;;
15673;SDS011;7937;48.090;16.212;2023-03-01T01:52:46;18.87;;;12.97;;
15673;SDS011;7937;48.090;16.212;2023-03-01T01:55:53;18.43;;;13.30;;
15673;SDS011;7937;48.090;16.212;2023-03-01T01:59:00;19.10;;;12.70;;
15673;SDS011;7937;48.090;16.212;2023-03-01T02:02:03;20.73;;;13.93;;
15673;SDS011;7937;48.090;16.212;2023-03-01T02:05:08;17.10;;;12.17;;
15673;SDS011;7937;48.090;16.212;2023-03-01T02:08:16;20.73;;;13.10;;
15673;SDS011;7937;48.090;16.212;2023-03-01T02:11:21;21.20;;;14.40;;
15673;SDS011;7937;48.090;16.212;2023-03-01T02:14:24;23.57;;;16.17;;
15673;SDS011;7937;48.090;16.212;2023-03-01T02:17:25;19.00;;;13.20;;
15673;SDS011;7937;48.090;16.212;2023-03-01T02:23:52;19.87;;;12.63;;
15673;SDS011;7937;48.090;16.212;2023-03-01T02:26:57;20.83;;;13.47;;
15673;SDS011;7937;48.090;16.212;2023-03-01T02:30:00;18.20;;;12.13;;
15673;SDS011;7937;48.090;16.212;2023-03-01T02:33:03;19.87;;;12.90;;
15673;SDS011;7937;48.090;16.212;2023-03-01T02:36:14;19.17;;;13.23;;
15673;SDS011;7937;48.090;16.212;2023-03-01T02:39:22;19.10;;;12.57;;
15673;SDS011;7937;48.090;16.212;2023-03-01T02:42:32;17.87;;;12.87;;
15673;SDS011;7937;48.090;16.212;2023-03-01T02:45:42;19.10;;;13.00;;
15673;SDS011;7937;48.090;16.212;2023-03-01T02:48:52;18.97;;;12.67;;
15673;SDS011;7937;48.090;16.212;2023-03-01T02:58:14;20.30;;;13.57;;
15673;SDS011;7937;48.090;16.212;2023-03-01T03:01:17;20.93;;;12.77;;
15673;SDS011;7937;48.090;16.212;2023-03-01T03:04:20;23.37;;;13.97;;
15673;SDS011;7937;48.090;16.212;2023-03-01T03:07:24;18.53;;;12.93;;
15673;SDS011;7937;48.090;16.212;2023-03-01T03:10:27;21.40;;;13.50;;
15673;SDS011;7937;48.090;16.212;2023-03-01T03:13:31;17.77;;;12.53;;
15673;SDS011;7937;48.090;16.212;2023-03-01T03:16:33;15.77;;;12.37;;
15673;SDS011;7937;48.090;16.212;2023-03-01T03:19:35;19.10;;;12.73;;
15673;SDS011;7937;48.090;16.212;2023-03-01T03:22:40;17.80;;;12.53;;
15673;SDS011;7937;48.090;16.212;2023-03-01T03:25:42;21.80;;;13.13;;
15673;SDS011;7937;48.090;16.212;2023-03-01T03:28:45;20.23;;;14.00;;
15673;SDS011;7937;48.090;16.212;2023-03-01T03:31:48;19.00;;;13.17;;
15673;SDS011;7937;48.090;16.212;2023-03-01T03:34:50;21.03;;;13.67;;
15673;SDS011;7937;48.090;16.212;2023-03-01T03:37:52;18.57;;;12.87;;
15673;SDS011;7937;48.090;16.212;2023-03-01T03:41:04;15.03;;;12.00;;
15673;SDS011;7937;48.090;16.212;2023-03-01T03:44:08;18.47;;;12.40;;
15673;SDS011;7937;48.090;16.212;2023-03-01T03:47:10;20.77;;;13.13;;
15673;SDS011;7937;48.090;16.212;2023-03-01T03:50:13;18.47;;;13.03;;
15673;SDS011;7937;48.090;16.212;2023-03-01T03:53:17;18.00;;;13.43;;
15673;SDS011;7937;48.090;16.212;2023-03-01T03:56:19;20.63;;;13.73;;
15673;SDS011;7937;48.090;16.212;2023-03-01T03:59:21;22.87;;;13.27;;
15673;SDS011;7937;48.090;16.212;2023-03-01T04:02:23;18.80;;;13.70;;
15673;SDS011;7937;48.090;16.212;2023-03-01T04:05:26;21.27;;;14.07;;
15673;SDS011;7937;48.090;16.212;2023-03-01T04:08:28;20.07;;;14.40;;
15673;SDS011;7937;48.090;16.212;2023-03-01T04:11:30;19.97;;;12.90;;
15673;SDS011;7937;48.090;16.212;2023-03-01T04:14:32;23.57;;;13.80;;
15673;SDS011;7937;48.090;16.212;2023-03-01T04:17:34;21.53;;;14.03;;
15673;SDS011;7937;48.090;16.212;2023-03-01T04:20:36;21.73;;;12.67;;
15673;SDS011;7937;48.090;16.212;2023-03-01T04:23:39;16.90;;;12.77;;
15673;SDS011;7937;48.090;16.212;2023-03-01T04:26:42;17.50;;;11.60;;
15673;SDS011;7937;48.090;16.212;2023-03-01T04:29:44;20.37;;;14.00;;
15673;SDS011;7937;48.090;16.212;2023-03-01T04:32:46;18.27;;;13.30;;
15673;SDS011;7937;48.090;16.212;2023-03-01T04:35:48;17.47;;;12.13;;
15673;SDS011;7937;48.090;16.212;2023-03-01T04:38:51;18.30;;;12.17;;
15673;SDS011;7937;48.090;16.212;2023-03-01T04:41:53;17.87;;;12.43;;
15673;SDS011;7937;48.090;16.212;2023-03-01T04:44:55;18.23;;;12.47;;
15673;SDS011;7937;48.090;16.212;2023-03-01T04:47:57;19.20;;;13.30;;
15673;SDS011;7937;48.090;16.212;2023-03-01T04:50:59;18.50;;;13.43;;
15673;SDS011;7937;48.090;16.212;2023-03-01T04:54:02;19.37;;;12.97;;
15673;SDS011;7937;48.090;16.212;2023-03-01T04:57:04;20.17;;;14.20;;
15673;SDS011;7937;48.090;16.212;2023-03-01T05:00:07;20.10;;;12.97;;
15673;SDS011;7937;48.090;16.212;2023-03-01T05:03:24;20.63;;;13.10;;
15673;SDS011;7937;48.090;16.212;2023-03-01T05:06:26;17.67;;;13.07;;
15673;SDS011;7937;48.090;16.212;2023-03-01T05:09:29;19.20;;;12.47;;
15673;SDS011;7937;48.090;16.212;2023-03-01T05:12:31;18.53;;;13.63;;
15673;SDS011;7937;48.090;16.212;2023-03-01T05:15:33;18.57;;;12.70;;
15673;SDS011;7937;48.090;16.212;2023-03-01T05:18:38;16.07;;;12.03;;
15673;SDS011;7937;48.090;16.212;2023-03-01T05:21:41;19.27;;;12.53;;
15673;SDS011;7937;48.090;16.212;2023-03-01T05:25:03;17.33;;;11.93;;
15673;SDS011;7937;48.090;16.212;2023-03-01T05:28:06;19.47;;;12.50;;
15673;SDS011;7937;48.090;16.212;2023-03-01T05:31:13;18.47;;;12.60;;
15673;SDS011;7937;48.090;16.212;2023-03-01T05:34:15;15.33;;;11.60;;
15673;SDS011;7937;48.090;16.212;2023-03-01T05:37:17;17.00;;;11.43;;
15673;SDS011;7937;48.090;16.212;2023-03-01T05:40:20;16.43;;;12.30;;
15673;SDS011;7937;48.090;16.212;2023-03-01T05:43:25;17.77;;;12.57;;
15673;SDS011;7937;48.090;16.212;2023-03-01T05:46:27;20.43;;;13.10;;
15673;SDS011;7937;48.090;16.212;2023-03-01T05:49:31;17.23;;;12.17;;
15673;SDS011;7937;48.090;16.212;2023-03-01T05:52:34;18.77;;;12.87;;
15673;SDS011;7937;48.090;16.212;2023-03-01T05:55:36;18.80;;;12.53;;
15673;SDS011;7937;48.090;16.212;2023-03-01T05:58:39;18.47;;;13.00;;
15673;SDS011;7937;48.090;16.212;2023-03-01T06:01:40;18.07;;;12.83;;
15673;SDS011;7937;48.090;16.212;2023-03-01T06:04:42;19.33;;;13.40;;
15673;SDS011;7937;48.090;16.212;2023-03-01T06:07:45;21.80;;;13.77;;
15673;SDS011;7937;48.090;16.212;2023-03-01T06:10:47;22.60;;;14.47;;
15673;SDS011;7937;48.090;16.212;2023-03-01T06:13:49;22.57;;;14.00;;
15673;SDS011;7937;48.090;16.212;2023-03-01T06:16:51;20.03;;;13.53;;
15673;SDS011;7937;48.090;16.212;2023-03-01T06:19:53;21.63;;;14.50;;
15673;SDS011;7937;48.090;16.212;2023-03-01T06:22:55;21.27;;;15.50;;
15673;SDS011;7937;48.090;16.212;2023-03-01T06:25:58;22.53;;;15.57;;
15673;SDS011;7937;48.090;16.212;2023-03-01T06:29:00;22.80;;;15.70;;
15673;SDS011;7937;48.090;16.212;2023-03-01T06:32:02;22.40;;;15.10;;
15673;SDS011;7937;48.090;16.212;2023-03-01T06:35:05;19.10;;;13.20;;
15673;SDS011;7937;48.090;16.212;2023-03-01T06:38:07;24.33;;;15.87;;
15673;SDS011;7937;48.090;16.212;2023-03-01T06:41:10;22.20;;;16.10;;
15673;SDS011;7937;48.090;16.212;2023-03-01T06:44:13;21.50;;;15.53;;
15673;SDS011;7937;48.090;16.212;2023-03-01T06:47:15;24.90;;;17.27;;
15673;SDS011;7937;48.090;16.212;2023-03-01T06:50:17;24.53;;;17.47;;
15673;SDS011;7937;48.090;16.212;2023-03-01T06:53:20;23.77;;;16.43;;
15673;SDS011;7937;48.090;16.212;2023-03-01T06:56:22;27.40;;;18.60;;
15673;SDS011;7937;48.090;16.212;2023-03-01T06:59:24;24.47;;;17.07;;
15673;SDS011;7937;48.090;16.212;2023-03-01T07:02:26;27.10;;;19.07;;
15673;SDS011;7937;48.090;16.212;2023-03-01T07:05:29;28.10;;;17.60;;
15673;SDS011;7937;48.090;16.212;2023-03-01T07:08:31;27.17;;;16.17;;
15673;SDS011;7937;48.090;16.212;2023-03-01T07:11:33;23.47;;;17.27;;
15673;SDS011;7937;48.090;16.212;2023-03-01T07:14:35;25.23;;;16.63;;
15673;SDS011;7937;48.090;16.212;2023-03-01T07:17:37;25.60;;;17.10;;
15673;SDS011;7937;48.090;16.212;2023-03-01T07:20:39;23.30;;;16.43;;
15673;SDS011;7937;48.090;16.212;2023-03-01T07:23:41;22.37;;;15.80;;
15673;SDS011;7937;48.090;16.212;2023-03-01T07:26:43;25.17;;;17.67;;
15673;SDS011;7937;48.090;16.212;2023-03-01T07:29:45;26.50;;;18.27;;
15673;SDS011;7937;48.090;16.212;2023-03-01T07:32:47;25.80;;;18.13;;
15673;SDS011;7937;48.090;16.212;2023-03-01T07:35:55;28.10;;;19.57;;
15673;SDS011;7937;48.090;16.212;2023-03-01T07:38:59;28.57;;;19.37;;
15673;SDS011;7937;48.090;16.212;2023-03-01T07:42:03;28.07;;;19.40;;
15673;SDS011;7937;48.090;16.212;2023-03-01T07:45:07;25.87;;;18.67;;
15673;SDS011;7937;48.090;16.212;2023-03-01T07:48:10;30.60;;;20.10;;
15673;SDS011;7937;48.090;16.212;2023-03-01T07:51:12;27.80;;;19.77;;
15673;SDS011;7937;48.090;16.212;2023-03-01T07:54:14;31.90;;;20.87;;
15673;SDS011;7937;48.090;16.212;2023-03-01T07:57:16;28.93;;;18.87;;
15673;SDS011;7937;48.090;16.212;2023-03-01T08:00:18;28.57;;;19.20;;
15673;SDS011;7937;48.090;16.212;2023-03-01T08:03:20;28.93;;;20.00;;
15673;SDS011;7937;48.090;16.212;2023-03-01T08:06:22;28.67;;;19.63;;
15673;SDS011;7937;48.090;16.212;2023-03-01T08:09:25;28.03;;;19.40;;
15673;SDS011;7937;48.090;16.212;2023-03-01T08:12:27;27.10;;;18.90;;
15673;SDS011;7937;48.090;16.212;2023-03-01T08:15:29;26.77;;;17.37;;
15673;SDS011;7937;48.090;16.212;2023-03-01T08:18:31;25.03;;;18.37;;
15673;SDS011;7937;48.090;16.212;2023-03-01T08:21:34;26.87;;;18.33;;
15673;SDS011;7937;48.090;16.212;2023-03-01T08:24:36;26.00;;;18.60;;
15673;SDS011;7937;48.090;16.212;2023-03-01T08:27:38;31.57;;;20.80;;
15673;SDS011;7937;48.090;16.212;2023-03-01T08:30:40;28.80;;;19.80;;
15673;SDS011;7937;48.090;16.212;2023-03-01T08:33:42;27.17;;;18.70;;
15673;SDS011;7937;48.090;16.212;2023-03-01T08:36:44;26.33;;;18.60;;
15673;SDS011;7937;48.090;16.212;2023-03-01T08:39:47;26.67;;;17.73;;
15673;SDS011;7937;48.090;16.212;2023-03-01T08:42:50;27.47;;;18.20;;
15673;SDS011;7937;48.090;16.212;2023-03-01T08:45:52;22.90;;;16.10;;
15673;SDS011;7937;48.090;16.212;2023-03-01T08:48:54;26.20;;;17.33;;
15673;SDS011;7937;48.090;16.212;2023-03-01T08:51:56;25.17;;;18.93;;
15673;SDS011;7937;48.090;16.212;2023-03-01T08:54:58;27.30;;;18.97;;
15673;SDS011;7937;48.090;16.212;2023-03-01T08:58:02;29.67;;;21.30;;
15673;SDS011;7937;48.090;16.212;2023-03-01T09:01:08;31.13;;;18.90;;
15673;SDS011;7937;48.090;16.212;2023-03-01T09:04:11;27.67;;;18.67;;
15673;SDS011;7937;48.090;16.212;2023-03-01T09:07:14;25.70;;;18.30;;
15673;SDS011;7937;48.090;16.212;2023-03-01T09:10:16;26.83;;;17.83;;
15673;SDS011;7937;48.090;16.212;2023-03-01T09:13:18;29.63;;;19.23;;
15673;SDS011;7937;48.090;16.212;2023-03-01T09:16:21;27.47;;;19.90;;
15673;SDS011;7937;48.090;16.212;2023-03-01T09:19:24;26.83;;;17.43;;
15673;SDS011;7937;48.090;16.212;2023-03-01T09:22:27;26.37;;;18.90;;
15673;SDS011;7937;48.090;16.212;2023-03-01T09:25:29;26.00;;;18.40;;
15673;SDS011;7937;48.090;16.212;2023-03-01T09:28:31;23.83;;;17.63;;
15673;SDS011;7937;48.090;16.212;2023-03-01T09:31:33;22.17;;;16.17;;
15673;SDS011;7937;48.090;16.212;2023-03-01T09:34:35;24.97;;;17.63;;
15673;SDS011;7937;48.090;16.212;2023-03-01T09:37:57;23.73;;;16.63;;
15673;SDS011;7937;48.090;16.212;2023-03-01T09:41:00;19.60;;;15.13;;
15673;SDS011;7937;48.090;16.212;2023-03-01T09:44:03;23.10;;;16.90;;
15673;SDS011;7937;48.090;16.212;2023-03-01T09:47:19;24.23;;;16.07;;
15673;SDS011;7937;48.090;16.212;2023-03-01T09:50:35;20.87;;;15.47;;
15673;SDS011;7937;48.090;16.212;2023-03-01T09:53:43;20.53;;;15.00;;
15673;SDS011;7937;48.090;16.212;2023-03-01T10:03:44;18.67;;;13.57;;
15673;SDS011;7937;48.090;16.212;2023-03-01T10:10:16;16.87;;;12.53;;
15673;SDS011;7937;48.090;16.212;2023-03-01T10:13:33;15.63;;;11.53;;
15673;SDS011;7937;48.090;16.212;2023-03-01T10:19:52;13.40;;;10.07;;
15673;SDS011;7937;48.090;16.212;2023-03-01T10:22:54;13.50;;;9.60;;
15673;SDS011;7937;48.090;16.212;2023-03-01T10:26:02;12.50;;;9.50;;
15673;SDS011;7937;48.090;16.212;2023-03-01T10:29:49;11.00;;;8.80;;
15673;SDS011;7937;48.090;16.212;2023-03-01T10:32:52;12.07;;;8.40;;
15673;SDS011;7937;48.090;16.212;2023-03-01T10:35:55;11.50;;;8.73;;
15673;SDS011;7937;48.090;16.212;2023-03-01T10:38:57;17.03;;;8.93;;
15673;SDS011;7937;48.090;16.212;2023-03-01T10:42:01;13.00;;;9.50;;
15673;SDS011;7937;48.090;16.212;2023-03-01T10:45:29;15.53;;;8.70;;
15673;SDS011;7937;48.090;16.212;2023-03-01T10:48:38;12.83;;;9.23;;
15673;SDS011;7937;48.090;16.212;2023-03-01T10:51:41;12.37;;;9.77;;
15673;SDS011;7937;48.090;16.212;2023-03-01T10:54:52;14.10;;;9.47;;
15673;SDS011;7937;48.090;16.212;2023-03-01T11:04:19;12.87;;;9.60;;
15673;SDS011;7937;48.090;16.212;2023-03-01T11:07:21;10.47;;;9.03;;
15673;SDS011;7937;48.090;16.212;2023-03-01T11:10:24;12.30;;;9.13;;
15673;SDS011;7937;48.090;16.212;2023-03-01T11:13:28;12.33;;;9.87;;
15673;SDS011;7937;48.090;16.212;2023-03-01T11:16:32;13.90;;;10.37;;
15673;SDS011;7937;48.090;16.212;2023-03-01T11:19:34;15.83;;;11.93;;
15673;SDS011;7937;48.090;16.212;2023-03-01T11:22:37;15.70;;;11.43;;
15673;SDS011;7937;48.090;16.212;2023-03-01T11:26:05;14.70;;;10.63;;
15673;SDS011;7937;48.090;16.212;2023-03-01T11:29:59;16.87;;;10.57;;
15673;SDS011;7937;48.090;16.212;2023-03-01T11:39:53;13.07;;;11.00;;
15673;SDS011;7937;48.090;16.212;2023-03-01T11:43:10;15.33;;;11.67;;
15673;SDS011;7937;48.090;16.212;2023-03-01T11:53:01;14.53;;;11.33;;
15673;SDS011;7937;48.090;16.212;2023-03-01T12:09:49;15.97;;;12.77;;
15673;SDS011;7937;48.090;16.212;2023-03-01T12:13:17;15.27;;;12.47;;
15673;SDS011;7937;48.090;16.212;2023-03-01T12:23:42;17.73;;;13.90;;
15673;SDS011;7937;48.090;16.212;2023-03-01T12:37:25;17.50;;;12.93;;
15673;SDS011;7937;48.090;16.212;2023-03-01T12:41:11;15.60;;;13.03;;
15673;SDS011;7937;48.090;16.212;2023-03-01T12:51:17;20.50;;;15.50;;
15673;SDS011;7937;48.090;16.212;2023-03-01T12:54:28;18.30;;;14.10;;
15673;SDS011;7937;48.090;16.212;2023-03-01T12:57:34;16.80;;;13.57;;
15673;SDS011;7937;48.090;16.212;2023-03-01T13:07:24;20.87;;;16.13;;
15673;SDS011;7937;48.090;16.212;2023-03-01T13:13:45;18.67;;;14.27;;
15673;SDS011;7937;48.090;16.212;2023-03-01T13:16:51;18.60;;;14.90;;
15673;SDS011;7937;48.090;16.212;2023-03-01T13:19:57;19.23;;;14.60;;
15673;SDS011;7937;48.090;16.212;2023-03-01T13:23:07;19.40;;;14.83;;
15673;SDS011;7937;48.090;16.212;2023-03-01T13:26:15;20.73;;;15.33;;
15673;SDS011;7937;48.090;16.212;2023-03-01T13:29:26;17.43;;;14.10;;
15673;SDS011;7937;48.090;16.212;2023-03-01T13:32:29;18.67;;;15.27;;
15673;SDS011;7937;48.090;16.212;2023-03-01T13:35:49;20.37;;;15.23;;
15673;SDS011;7937;48.090;16.212;2023-03-01T13:42:00;17.07;;;14.17;;
15673;SDS011;7937;48.090;16.212;2023-03-01T13:45:04;18.30;;;14.27;;
15673;SDS011;7937;48.090;16.212;2023-03-01T13:48:27;18.77;;;13.97;;
15673;SDS011;7937;48.090;16.212;2023-03-01T13:51:32;16.07;;;13.10;;
15673;SDS011;7937;48.090;16.212;2023-03-01T13:54:34;17.90;;;13.17;;
15673;SDS011;7937;48.090;16.212;2023-03-01T13:57:36;19.87;;;14.93;;
15673;SDS011;7937;48.090;16.212;2023-03-01T14:00:42;19.63;;;13.73;;
15673;SDS011;7937;48.090;16.212;2023-03-01T14:03:44;16.73;;;13.20;;
15673;SDS011;7937;48.090;16.212;2023-03-01T14:06:46;17.33;;;13.50;;
15673;SDS011;7937;48.090;16.212;2023-03-01T14:09:50;16.70;;;11.93;;
15673;SDS011;7937;48.090;16.212;2023-03-01T14:13:20;17.03;;;13.07;;
15673;SDS011;7937;48.090;16.212;2023-03-01T14:20:28;15.10;;;12.57;;
15673;SDS011;7937;48.090;16.212;2023-03-01T14:23:33;13.97;;;10.77;;
15673;SDS011;7937;48.090;16.212;2023-03-01T14:26:37;15.23;;;11.73;;
15673;SDS011;7937;48.090;16.212;2023-03-01T14:29:39;14.23;;;11.57;;
15673;SDS011;7937;48.090;16.212;2023-03-01T14:32:41;15.20;;;12.43;;
15673;SDS011;7937;48.090;16.212;2023-03-01T14:35:51;15.20;;;12.30;;
15673;SDS011;7937;48.090;16.212;2023-03-01T14:39:01;12.97;;;10.47;;
15673;SDS011;7937;48.090;16.212;2023-03-01T14:42:17;15.17;;;11.00;;
15673;SDS011;7937;48.090;16.212;2023-03-01T14:45:25;11.53;;;9.30;;
15673;SDS011;7937;48.090;16.212;2023-03-01T14:48:30;53.67;;;34.50;;
15673;SDS011;7937;48.090;16.212;2023-03-01T14:51:37;18.10;;;13.77;;
15673;SDS011;7937;48.090;16.212;2023-03-01T14:57:46;17.80;;;13.50;;
15673;SDS011;7937;48.090;16.212;2023-03-01T15:00:53;15.07;;;11.90;;
15673;SDS011;7937;48.090;16.212;2023-03-01T15:03:58;17.40;;;11.70;;
15673;SDS011;7937;48.090;16.212;2023-03-01T15:07:03;14.03;;;11.47;;
15673;SDS011;7937;48.090;16.212;2023-03-01T15:10:07;13.60;;;11.30;;
15673;SDS011;7937;48.090;16.212;2023-03-01T15:13:23;17.77;;;12.80;;
15673;SDS011;7937;48.090;16.212;2023-03-01T15:16:29;17.93;;;13.13;;
15673;SDS011;7937;48.090;16.212;2023-03-01T15:19:35;14.50;;;11.03;;
15673;SDS011;7937;48.090;16.212;2023-03-01T15:22:37;15.13;;;11.87;;
15673;SDS011;7937;48.090;16.212;2023-03-01T15:25:43;15.40;;;11.60;;
15673;SDS011;7937;48.090;16.212;2023-03-01T15:28:48;12.70;;;11.03;;
15673;SDS011;7937;48.090;16.212;2023-03-01T15:31:57;14.47;;;11.20;;
15673;SDS011;7937;48.090;16.212;2023-03-01T15:38:49;14.57;;;11.90;;
15673;SDS011;7937;48.090;16.212;2023-03-01T15:41:56;14.60;;;11.03;;
15673;SDS011;7937;48.090;16.212;2023-03-01T15:48:17;13.03;;;10.37;;
15673;SDS011;7937;48.090;16.212;2023-03-01T15:51:22;13.67;;;9.90;;
15673;SDS011;7937;48.090;16.212;2023-03-01T15:54:31;15.70;;;11.03;;
15673;SDS011;7937;48.090;16.212;2023-03-01T15:57:33;14.60;;;11.60;;
15673;SDS011;7937;48.090;16.212;2023-03-01T16:00:35;16.43;;;11.50;;
15673;SDS011;7937;48.090;16.212;2023-03-01T16:03:37;15.00;;;10.93;;
15673;SDS011;7937;48.090;16.212;2023-03-01T16:06:39;15.93;;;11.13;;
15673;SDS011;7937;48.090;16.212;2023-03-01T16:09:41;15.93;;;11.90;;
15673;SDS011;7937;48.090;16.212;2023-03-01T16:12:45;16.13;;;11.87;;
15673;SDS011;7937;48.090;16.212;2023-03-01T16:15:52;15.23;;;11.90;;
15673;SDS011;7937;48.090;16.212;2023-03-01T16:18:54;12.73;;;10.53;;
15673;SDS011;7937;48.090;16.212;2023-03-01T16:21:57;12.53;;;10.77;;
15673;SDS011;7937;48.090;16.212;2023-03-01T16:25:00;14.33;;;11.17;;
15673;SDS011;7937;48.090;16.212;2023-03-01T16:28:03;14.23;;;11.13;;
15673;SDS011;7937;48.090;16.212;2023-03-01T16:31:10;14.97;;;11.77;;
15673;SDS011;7937;48.090;16.212;2023-03-01T16:34:14;16.17;;;12.37;;
15673;SDS011;7937;48.090;16.212;2023-03-01T16:37:16;14.13;;;11.17;;
15673;SDS011;7937;48.090;16.212;2023-03-01T16:40:25;16.53;;;12.20;;
15673;SDS011;7937;48.090;16.212;2023-03-01T16:43:29;12.67;;;10.63;;
15673;SDS011;7937;48.090;16.212;2023-03-01T16:46:32;13.00;;;10.37;;
15673;SDS011;7937;48.090;16.212;2023-03-01T16:49:34;14.07;;;10.57;;
15673;SDS011;7937;48.090;16.212;2023-03-01T16:52:36;14.73;;;11.43;;
15673;SDS011;7937;48.090;16.212;2023-03-01T16:55:39;14.93;;;11.27;;
15673;SDS011;7937;48.090;16.212;2023-03-01T16:58:48;13.80;;;10.53;;
15673;SDS011;7937;48.090;16.212;2023-03-01T17:01:50;13.63;;;10.67;;
15673;SDS011;7937;48.090;16.212;2023-03-01T17:04:53;12.77;;;10.43;;
15673;SDS011;7937;48.090;16.212;2023-03-01T17:07:57;15.33;;;11.43;;
15673;SDS011;7937;48.090;16.212;2023-03-01T17:11:08;13.40;;;11.03;;
15673;SDS011;7937;48.090;16.212;2023-03-01T17:14:15;12.40;;;10.20;;
15673;SDS011;7937;48.090;16.212;2023-03-01T17:17:17;13.53;;;10.57;;
15673;SDS011;7937;48.090;16.212;2023-03-01T17:20:20;12.83;;;9.83;;
15673;SDS011;7937;48.090;16.212;2023-03-01T17:23:23;13.97;;;10.93;;
15673;SDS011;7937;48.090;16.212;2023-03-01T17:26:25;12.83;;;10.93;;
15673;SDS011;7937;48.090;16.212;2023-03-01T17:29:31;13.90;;;10.43;;
15673;SDS011;7937;48.090;16.212;2023-03-01T17:32:34;13.93;;;10.90;;
15673;SDS011;7937;48.090;16.212;2023-03-01T17:35:37;14.53;;;11.13;;
15673;SDS011;7937;48.090;16.212;2023-03-01T17:38:39;12.00;;;10.63;;
15673;SDS011;7937;48.090;16.212;2023-03-01T17:41:42;14.17;;;11.70;;
15673;SDS011;7937;48.090;16.212;2023-03-01T17:44:45;14.67;;;11.40;;
15673;SDS011;7937;48.090;16.212;2023-03-01T17:47:47;15.60;;;11.83;;
15673;SDS011;7937;48.090;16.212;2023-03-01T17:50:49;16.63;;;11.93;;
15673;SDS011;7937;48.090;16.212;2023-03-01T17:53:51;15.27;;;11.63;;
15673;SDS011;7937;48.090;16.212;2023-03-01T17:56:56;14.33;;;12.03;;
15673;SDS011;7937;48.090;16.212;2023-03-01T18:00:00;16.27;;;12.63;;
15673;SDS011;7937;48.090;16.212;2023-03-01T18:03:11;12.13;;;10.53;;
15673;SDS011;7937;48.090;16.212;2023-03-01T18:06:17;14.73;;;10.93;;
15673;SDS011;7937;48.090;16.212;2023-03-01T18:09:28;14.63;;;10.87;;
15673;SDS011;7937;48.090;16.212;2023-03-01T18:12:31;14.67;;;11.40;;
15673;SDS011;7937;48.090;16.212;2023-03-01T18:15:33;15.33;;;11.63;;
15673;SDS011;7937;48.090;16.212;2023-03-01T18:18:37;15.87;;;12.30;;
15673;SDS011;7937;48.090;16.212;2023-03-01T18:21:41;15.40;;;12.23;;
15673;SDS011;7937;48.090;16.212;2023-03-01T18:24:45;14.77;;;11.43;;
15673;SDS011;7937;48.090;16.212;2023-03-01T18:27:47;16.07;;;12.20;;
15673;SDS011;7937;48.090;16.212;2023-03-01T18:30:57;17.10;;;12.20;;
15673;SDS011;7937;48.090;16.212;2023-03-01T18:34:04;17.40;;;13.10;;
15673;SDS011;7937;48.090;16.212;2023-03-01T18:37:11;18.00;;;13.00;;
15673;SDS011;7937;48.090;16.212;2023-03-01T18:40:14;17.10;;;13.30;;
15673;SDS011;7937;48.090;16.212;2023-03-01T18:43:19;19.37;;;12.63;;
15673;SDS011;7937;48.090;16.212;2023-03-01T18:46:22;17.73;;;13.77;;
15673;SDS011;7937;48.090;16.212;2023-03-01T18:49:25;18.53;;;14.47;;
15673;SDS011;7937;48.090;16.212;2023-03-01T18:52:29;18.73;;;14.27;;
15673;SDS011;7937;48.090;16.212;2023-03-01T18:55:37;19.57;;;14.43;;
15673;SDS011;7937;48.090;16.212;2023-03-01T18:58:41;17.90;;;13.63;;
15673;SDS011;7937;48.090;16.212;2023-03-01T19:01:44;20.87;;;14.47;;
15673;SDS011;7937;48.090;16.212;2023-03-01T19:04:48;19.33;;;14.33;;
15673;SDS011;7937;48.090;16.212;2023-03-01T19:07:52;19.57;;;13.30;;
15673;SDS011;7937;48.090;16.212;2023-03-01T19:10:59;19.03;;;14.33;;
15673;SDS011;7937;48.090;16.212;2023-03-01T19:14:03;19.33;;;14.30;;
15673;SDS011;7937;48.090;16.212;2023-03-01T19:17:06;17.93;;;14.27;;
15673;SDS011;7937;48.090;16.212;2023-03-01T19:20:11;19.90;;;14.33;;
15673;SDS011;7937;48.090;16.212;2023-03-01T19:23:15;17.37;;;14.30;;
15673;SDS011;7937;48.090;16.212;2023-03-01T19:26:19;21.50;;;15.23;;
15673;SDS011;7937;48.090;16.212;2023-03-01T19:29:24;20.97;;;15.17;;
15673;SDS011;7937;48.090;16.212;2023-03-01T19:32:27;18.07;;;14.57;;
15673;SDS011;7937;48.090;16.212;2023-03-01T19:35:30;19.77;;;14.83;;
15673;SDS011;7937;48.090;16.212;2023-03-01T19:38:37;20.43;;;14.20;;
15673;SDS011;7937;48.090;16.212;2023-03-01T19:41:41;18.57;;;13.87;;
15673;SDS011;7937;48.090;16.212;2023-03-01T19:44:48;19.10;;;14.07;;
15673;SDS011;7937;48.090;16.212;2023-03-01T19:47:54;22.37;;;15.00;;
15673;SDS011;7937;48.090;16.212;2023-03-01T19:50:57;19.53;;;13.53;;
15673;SDS011;7937;48.090;16.212;2023-03-01T19:54:01;19.10;;;13.80;;
15673;SDS011;7937;48.090;16.212;2023-03-01T19:57:04;20.60;;;15.03;;